createdAt,value
2018-07-20T00:02:12.391Z,63.49
2018-07-20T00:04:40.885Z,63.00
2018-07-20T00:07:09.374Z,62.71
2018-07-20T00:09:37.969Z,62.68
2018-07-20T00:12:06.714Z,62.97
2018-07-20T00:14:35.343Z,63.23
2018-07-20T00:17:04.117Z,63.05
2018-07-20T00:19:32.758Z,62.85
2018-07-20T00:22:01.434Z,63.15
2018-07-20T00:24:29.911Z,64.12
2018-07-20T00:26:58.539Z,64.26
2018-07-20T00:29:27.066Z,64.53
2018-07-20T00:31:55.633Z,65.65
2018-07-20T00:34:24.117Z,65.64
2018-07-20T00:36:52.570Z,66.30
2018-07-20T00:39:21.081Z,66.50
2018-07-20T00:41:49.559Z,66.30
2018-07-20T00:44:18.200Z,66.79
2018-07-20T00:46:46.837Z,67.10
2018-07-20T00:49:15.308Z,67.45
2018-07-20T00:51:43.778Z,67.45
2018-07-20T00:54:12.241Z,67.57
2018-07-20T00:56:40.798Z,67.38
2018-07-20T00:59:10.383Z,68.25
2018-07-20T01:01:38.976Z,68.24
2018-07-20T01:04:07.474Z,68.39
2018-07-20T01:06:35.960Z,68.15
2018-07-20T01:09:07.693Z,68.20
2018-07-20T01:11:36.184Z,67.12
2018-07-20T01:14:04.772Z,68.15
2018-07-20T01:16:33.353Z,66.92
2018-07-20T01:19:01.827Z,66.92
2018-07-20T01:21:30.310Z,66.62
2018-07-20T01:23:59.006Z,66.77
2018-07-20T01:26:27.498Z,67.03
2018-07-20T01:28:56.090Z,67.31
2018-07-20T01:31:24.665Z,68.17
2018-07-20T01:33:53.258Z,67.89
2018-07-20T01:36:21.814Z,68.11
2018-07-20T01:38:50.262Z,68.63
2018-07-20T01:41:18.791Z,69.34
2018-07-20T01:43:47.408Z,69.12
2018-07-20T01:46:16.062Z,69.52
2018-07-20T01:48:44.546Z,69.95
2018-07-20T01:51:13.081Z,69.65
2018-07-20T01:53:41.589Z,69.83
2018-07-20T02:02:42.527Z,70.05
2018-07-20T02:05:11.118Z,69.95
2018-07-20T02:07:39.626Z,70.30
2018-07-20T02:10:08.520Z,70.71
2018-07-20T02:12:37.074Z,70.93
2018-07-20T02:15:06.053Z,70.74
2018-07-20T02:17:34.667Z,70.34
2018-07-20T02:20:03.674Z,71.12
2018-07-20T02:22:32.227Z,70.56
2018-07-20T02:25:00.859Z,70.88
2018-07-20T02:27:29.374Z,70.91
2018-07-20T02:29:57.810Z,71.17
2018-07-20T02:32:26.551Z,71.01
2018-07-20T02:34:55.222Z,70.07
2018-07-20T02:37:23.690Z,70.80
2018-07-20T02:39:52.165Z,70.47
2018-07-20T02:42:20.885Z,70.79
2018-07-20T02:44:49.563Z,70.88
2018-07-20T02:47:18.042Z,69.97
2018-07-20T02:49:46.632Z,70.49
2018-07-20T02:52:15.198Z,70.22
2018-07-20T02:54:43.685Z,69.18
2018-07-20T02:57:12.254Z,69.29
2018-07-20T02:59:40.775Z,69.91
2018-07-20T03:02:09.350Z,69.42
2018-07-20T03:04:37.961Z,68.99
2018-07-20T03:07:06.962Z,69.35
2018-07-20T03:09:35.796Z,69.47
2018-07-20T03:12:04.407Z,68.66
2018-07-20T03:14:32.964Z,69.26
2018-07-20T03:17:01.480Z,69.53
2018-07-20T03:19:30.042Z,70.30
2018-07-20T03:21:58.799Z,69.81
2018-07-20T03:24:27.266Z,69.83
2018-07-20T03:26:55.794Z,70.21
2018-07-20T03:29:24.245Z,71.19
2018-07-20T03:31:52.731Z,70.61
2018-07-20T03:34:21.237Z,71.12
2018-07-20T03:36:49.709Z,72.41
2018-07-20T03:39:18.746Z,70.68
2018-07-20T03:41:47.390Z,70.90
2018-07-20T03:44:15.838Z,71.15
2018-07-20T03:46:44.429Z,71.08
2018-07-20T03:49:13.005Z,71.37
2018-07-20T03:51:41.485Z,71.59
2018-07-20T03:54:09.993Z,71.54
2018-07-20T03:56:38.734Z,71.11
2018-07-20T03:59:07.337Z,70.48
2018-07-20T04:01:35.839Z,70.51
2018-07-20T04:06:31.920Z,69.79
2018-07-20T04:09:01.230Z,69.16
2018-07-20T04:11:30.006Z,69.25
2018-07-20T04:13:58.581Z,69.05
2018-07-20T04:16:27.113Z,69.00
2018-07-20T04:18:55.750Z,69.06
2018-07-20T04:21:24.462Z,68.82
2018-07-20T04:23:53.013Z,68.67
2018-07-20T04:26:21.706Z,68.28
2018-07-20T04:28:50.759Z,68.13
2018-07-20T04:31:19.451Z,67.85
2018-07-20T04:33:48.129Z,68.54
2018-07-20T04:36:18.608Z,68.30
2018-07-20T04:38:47.466Z,69.03
2018-07-20T04:41:16.623Z,69.70
2018-07-20T04:43:45.245Z,69.67
2018-07-20T04:46:13.723Z,69.47
2018-07-20T04:48:42.306Z,69.41
2018-07-20T04:51:11.022Z,70.58
2018-07-20T04:53:39.842Z,70.12
2018-07-20T04:56:08.402Z,70.40
2018-07-20T04:58:37.237Z,69.43
2018-07-20T05:01:06.100Z,70.01
2018-07-20T05:03:34.637Z,69.65
2018-07-20T05:06:03.111Z,69.47
2018-07-20T05:08:31.779Z,69.90
2018-07-20T05:11:00.311Z,69.21
2018-07-20T05:13:28.750Z,69.36
2018-07-20T05:15:57.326Z,68.49
2018-07-20T05:18:26.069Z,67.98
2018-07-20T05:20:54.558Z,68.41
2018-07-20T05:23:23.240Z,66.00
2018-07-20T05:25:51.824Z,65.36
2018-07-20T05:28:20.450Z,63.71
2018-07-20T05:30:49.111Z,63.66
2018-07-20T05:33:17.694Z,63.02
2018-07-20T05:35:46.659Z,62.33
2018-07-20T05:38:15.213Z,61.75
2018-07-20T05:40:43.794Z,61.51
2018-07-20T05:43:12.297Z,60.71
2018-07-20T05:45:40.793Z,60.82
2018-07-20T05:48:09.665Z,61.13
2018-07-20T05:50:42.457Z,59.04
2018-07-20T05:53:10.933Z,57.33
2018-07-20T05:55:39.463Z,56.70
2018-07-20T05:58:08.296Z,57.19
2018-07-20T06:00:37.375Z,56.11
2018-07-20T06:03:05.999Z,56.41
2018-07-20T06:05:34.599Z,57.60
2018-07-20T06:08:03.035Z,57.37
2018-07-20T06:10:31.691Z,58.37
2018-07-20T06:15:28.079Z,59.47
2018-07-20T06:17:56.734Z,58.87
2018-07-20T06:20:25.315Z,57.41
2018-07-20T06:22:53.821Z,56.23
2018-07-20T06:25:23.021Z,54.63
2018-07-20T06:27:51.563Z,55.41
2018-07-20T06:30:20.126Z,55.23
2018-07-20T06:32:48.804Z,54.58
2018-07-20T06:35:17.436Z,54.60
2018-07-20T06:37:46.006Z,54.36
2018-07-20T06:40:14.542Z,54.87
2018-07-20T06:42:43.140Z,55.86
2018-07-20T06:45:11.654Z,56.72
2018-07-20T06:47:40.239Z,57.57
2018-07-20T06:50:13.947Z,58.26
2018-07-20T06:52:42.560Z,57.73
2018-07-20T06:55:11.323Z,58.63
2018-07-20T06:57:39.932Z,57.34
2018-07-20T07:00:09.104Z,57.29
2018-07-20T07:02:37.765Z,56.60
2018-07-20T07:05:08.318Z,56.48
2018-07-20T07:07:36.904Z,56.08
2018-07-20T07:10:05.961Z,55.74
2018-07-20T07:12:34.587Z,56.34
2018-07-20T07:15:03.188Z,55.40
2018-07-20T07:17:31.716Z,55.74
2018-07-20T07:20:00.183Z,55.07
2018-07-20T07:22:28.851Z,53.96
2018-07-20T07:24:57.370Z,53.87
2018-07-20T07:27:25.949Z,54.17
2018-07-20T07:29:54.479Z,52.69
2018-07-20T07:32:23.064Z,52.23
2018-07-20T07:34:51.578Z,52.33
2018-07-20T07:37:20.067Z,51.98
2018-07-20T07:39:48.800Z,50.88
2018-07-20T07:42:17.691Z,50.90
2018-07-20T07:44:46.227Z,50.35
2018-07-20T07:47:14.764Z,49.15
2018-07-20T07:49:43.285Z,48.97
2018-07-20T07:52:11.850Z,49.60
2018-07-20T07:54:40.427Z,48.41
2018-07-20T07:57:09.003Z,48.31
2018-07-20T07:59:37.620Z,47.61
2018-07-20T08:02:06.502Z,46.82
2018-07-20T08:04:35.203Z,46.84
2018-07-20T08:07:03.806Z,46.04
2018-07-20T08:09:32.398Z,46.12
2018-07-20T08:12:01.173Z,44.95
2018-07-20T08:14:29.668Z,44.33
2018-07-20T08:16:58.289Z,41.98
2018-07-20T08:19:26.746Z,41.40
2018-07-20T08:21:55.282Z,41.40
2018-07-20T08:24:23.933Z,41.80
2018-07-20T08:26:52.530Z,41.66
2018-07-20T08:29:21.479Z,40.73
2018-07-20T08:31:50.051Z,40.85
2018-07-20T08:34:18.572Z,40.02
2018-07-20T08:36:47.215Z,39.42
2018-07-20T08:39:15.725Z,38.93
2018-07-20T08:41:44.185Z,38.67
2018-07-20T08:44:12.669Z,39.02
2018-07-20T08:46:41.292Z,38.61
2018-07-20T08:49:09.638Z,37.40
2018-07-20T08:51:38.244Z,37.05
2018-07-20T08:54:06.841Z,35.62
2018-07-20T08:56:35.350Z,36.11
2018-07-20T08:59:03.857Z,34.88
2018-07-20T09:01:32.548Z,34.47
2018-07-20T09:04:01.131Z,33.98
2018-07-20T09:06:29.650Z,34.05
2018-07-20T09:08:58.197Z,33.75
2018-07-20T09:11:26.678Z,34.01
2018-07-20T09:13:55.239Z,35.32
2018-07-20T09:16:23.751Z,34.39
2018-07-20T09:18:52.225Z,32.79
2018-07-20T09:21:20.737Z,32.24
2018-07-20T09:23:49.431Z,31.94
2018-07-20T09:26:17.962Z,30.58
2018-07-20T09:28:46.879Z,30.32
2018-07-20T09:31:15.607Z,27.94
2018-07-20T09:33:44.242Z,28.64
2018-07-20T09:36:12.860Z,29.10
2018-07-20T09:38:41.831Z,28.51
2018-07-20T09:41:10.361Z,27.82
2018-07-20T09:43:39.090Z,28.31
2018-07-20T09:46:07.775Z,28.98
2018-07-20T09:48:36.550Z,26.61
2018-07-20T09:51:05.236Z,26.14
2018-07-20T09:53:33.735Z,25.55
2018-07-20T09:56:06.950Z,26.05
2018-07-20T09:58:35.617Z,24.75
2018-07-20T10:01:04.259Z,26.15
2018-07-20T10:03:32.926Z,25.46
2018-07-20T10:06:01.618Z,23.56
2018-07-20T10:08:30.109Z,23.97
2018-07-20T10:10:58.634Z,23.03
2018-07-20T10:13:27.134Z,23.61
2018-07-20T10:15:55.750Z,23.32
2018-07-20T10:18:24.266Z,22.65
2018-07-20T10:20:52.756Z,22.57
2018-07-20T10:23:21.266Z,22.78
2018-07-20T10:25:49.881Z,23.43
2018-07-20T10:28:18.597Z,24.79
2018-07-20T10:30:47.302Z,23.39
2018-07-20T10:33:15.844Z,23.63
2018-07-20T10:35:44.362Z,23.07
2018-07-20T10:38:12.814Z,23.39
2018-07-20T10:40:41.313Z,23.36
2018-07-20T10:43:09.850Z,23.02
2018-07-20T10:45:38.537Z,23.05
2018-07-20T10:48:07.076Z,21.35
2018-07-20T10:50:35.559Z,22.18
2018-07-20T10:53:04.118Z,21.58
2018-07-20T10:55:32.684Z,22.25
2018-07-20T10:58:01.165Z,21.38
2018-07-20T11:00:29.718Z,23.56
2018-07-20T11:02:58.303Z,21.11
2018-07-20T11:05:26.863Z,21.15
2018-07-20T11:07:55.493Z,21.49
2018-07-20T11:10:24.187Z,21.35
2018-07-20T11:12:52.781Z,20.08
2018-07-20T11:15:21.405Z,20.33
2018-07-20T11:17:50.889Z,19.75
2018-07-20T11:20:19.433Z,19.98
2018-07-20T11:22:47.949Z,20.61
2018-07-20T11:25:16.449Z,19.76
2018-07-20T11:27:45.052Z,20.85
2018-07-20T11:30:13.632Z,19.97
2018-07-20T11:32:42.077Z,20.56
2018-07-20T11:35:10.802Z,21.23
2018-07-20T11:37:39.265Z,18.91
2018-07-20T11:40:07.787Z,17.58
2018-07-20T11:42:36.503Z,18.13
2018-07-20T11:45:05.275Z,17.07
2018-07-20T11:47:33.824Z,17.84
2018-07-20T11:50:02.442Z,17.89
2018-07-20T11:52:31.068Z,19.10
2018-07-20T11:54:59.646Z,15.97
2018-07-20T11:57:28.174Z,15.39
2018-07-20T11:59:56.762Z,16.61
2018-07-20T12:02:25.832Z,16.28
2018-07-20T12:04:54.637Z,16.33
2018-07-20T12:07:23.210Z,15.49
2018-07-20T12:09:51.923Z,15.69
2018-07-20T12:12:20.733Z,14.53
2018-07-20T12:14:51.604Z,16.89
2018-07-20T12:17:20.141Z,18.63
2018-07-20T12:19:49.027Z,20.10
2018-07-20T12:22:17.827Z,22.46
2018-07-20T12:24:46.410Z,23.20
2018-07-20T12:27:15.136Z,24.08
2018-07-20T12:29:43.946Z,24.84
2018-07-20T12:32:12.433Z,25.76
2018-07-20T12:34:41.061Z,25.20
2018-07-20T12:37:09.577Z,25.44
2018-07-20T12:39:42.570Z,23.38
2018-07-20T12:42:11.099Z,23.43
2018-07-20T12:44:39.646Z,24.00
2018-07-20T12:47:08.133Z,29.64
2018-07-20T12:49:36.595Z,31.79
2018-07-20T12:52:05.195Z,28.66
2018-07-20T12:54:33.686Z,27.58
2018-07-20T12:57:02.360Z,29.62
2018-07-20T12:59:30.930Z,33.09
2018-07-20T13:01:59.430Z,35.53
2018-07-20T13:04:27.857Z,37.81
2018-07-20T13:06:56.500Z,39.49
2018-07-20T13:09:25.057Z,39.23
2018-07-20T13:11:53.632Z,40.10
2018-07-20T13:14:22.261Z,40.74
2018-07-20T13:16:50.855Z,39.36
2018-07-20T13:19:19.447Z,39.18
2018-07-20T13:21:48.034Z,36.90
2018-07-20T13:24:16.725Z,30.61
2018-07-20T13:26:45.245Z,24.29
2018-07-20T13:29:13.787Z,24.07
2018-07-20T13:31:42.663Z,21.04
2018-07-20T13:34:11.466Z,21.10
2018-07-20T13:36:40.028Z,21.59
2018-07-20T13:41:40.312Z,22.00
2018-07-20T13:44:08.822Z,22.19
2018-07-20T13:46:37.366Z,22.30
2018-07-20T13:49:06.133Z,20.43
2018-07-20T13:51:36.664Z,18.96
2018-07-20T13:54:09.537Z,17.74
2018-07-20T13:56:38.162Z,17.62
2018-07-20T13:59:06.712Z,19.41
2018-07-20T14:01:35.407Z,21.43
2018-07-20T14:04:04.026Z,19.50
2018-07-20T14:06:32.529Z,18.97
2018-07-20T14:09:01.049Z,16.94
2018-07-20T14:11:29.643Z,16.96
2018-07-20T14:13:58.106Z,15.59
2018-07-20T14:16:26.649Z,15.29
2018-07-20T14:18:55.253Z,15.35
2018-07-20T14:21:23.723Z,19.10
2018-07-20T14:23:52.242Z,21.25
2018-07-20T14:26:20.806Z,22.87
2018-07-20T14:28:49.341Z,25.40
2018-07-20T14:31:17.867Z,26.73
2018-07-20T14:33:46.476Z,28.19
2018-07-20T14:36:15.039Z,29.79
2018-07-20T14:38:43.521Z,31.90
2018-07-20T14:41:11.988Z,33.50
2018-07-20T14:43:40.506Z,34.00
2018-07-20T14:46:09.145Z,34.79
2018-07-20T14:48:37.744Z,36.40
2018-07-20T14:51:06.302Z,36.25
2018-07-20T14:53:34.869Z,37.54
2018-07-20T14:56:03.423Z,38.86
2018-07-20T14:58:31.961Z,40.49
2018-07-20T15:01:00.485Z,42.29
2018-07-20T15:03:29.049Z,43.83
2018-07-20T15:05:57.542Z,45.36
2018-07-20T15:08:26.514Z,46.76
2018-07-20T15:10:55.222Z,47.79
2018-07-20T15:13:24.100Z,48.72
2018-07-20T15:15:52.614Z,47.71
2018-07-20T15:18:21.162Z,48.65
2018-07-20T15:20:49.809Z,49.72
2018-07-20T15:23:18.422Z,50.22
2018-07-20T15:25:47.174Z,50.82
2018-07-20T15:28:15.753Z,51.54
2018-07-20T15:30:44.354Z,53.43
2018-07-20T15:33:12.880Z,53.83
2018-07-20T15:35:41.791Z,54.62
2018-07-20T15:38:10.383Z,56.66
2018-07-20T15:40:39.035Z,58.64
2018-07-20T15:43:07.598Z,60.12
2018-07-20T15:45:36.533Z,59.73
2018-07-20T15:48:05.415Z,61.07
2018-07-20T15:50:34.073Z,60.36
2018-07-20T15:55:31.258Z,63.50
2018-07-20T15:57:59.823Z,62.84
2018-07-20T16:00:28.500Z,62.40
2018-07-20T16:02:57.177Z,61.35
2018-07-20T16:05:25.946Z,63.40
2018-07-20T16:07:54.574Z,65.11
2018-07-20T16:10:23.257Z,67.48
2018-07-20T16:12:51.757Z,67.89
2018-07-20T16:15:20.235Z,70.61
2018-07-20T16:17:48.849Z,72.51
2018-07-20T16:20:17.544Z,76.68
2018-07-20T16:22:46.270Z,79.40
2018-07-20T16:25:14.766Z,84.61
2018-07-20T16:27:43.367Z,86.54
2018-07-20T16:30:12.218Z,88.89
2018-07-20T16:32:40.734Z,90.60
2018-07-20T16:35:09.218Z,93.10
2018-07-20T16:37:38.849Z,92.04
2018-07-20T16:40:07.427Z,92.01
2018-07-20T16:42:36.026Z,93.26
2018-07-20T16:45:05.133Z,91.87
2018-07-20T16:47:33.697Z,90.37
2018-07-20T16:50:02.497Z,91.26
2018-07-20T16:52:32.145Z,91.49
2018-07-20T16:55:00.674Z,91.09
2018-07-20T16:57:29.273Z,88.58
2018-07-20T16:59:57.883Z,87.17
2018-07-20T17:02:26.563Z,85.98
2018-07-20T17:04:55.065Z,91.09
2018-07-20T17:07:23.837Z,90.23
2018-07-20T17:09:55.460Z,92.47
2018-07-20T17:12:24.062Z,90.92
2018-07-20T17:14:52.590Z,91.06
2018-07-20T17:17:21.089Z,89.15
2018-07-20T17:19:49.670Z,90.75
2018-07-20T17:22:18.202Z,89.49
2018-07-20T17:24:46.771Z,89.50
2018-07-20T17:27:15.357Z,91.01
2018-07-20T17:29:43.861Z,87.34
2018-07-20T17:32:12.434Z,88.09
2018-07-20T17:34:41.334Z,88.48
2018-07-20T17:37:09.881Z,90.19
2018-07-20T17:39:38.646Z,89.12
2018-07-20T17:42:07.314Z,90.94
2018-07-20T17:44:35.835Z,89.99
2018-07-20T17:47:04.419Z,90.71
2018-07-20T17:49:33.074Z,90.89
2018-07-20T17:52:01.764Z,92.78
2018-07-20T17:54:30.269Z,91.77
2018-07-20T17:56:58.830Z,90.57
2018-07-20T17:59:27.515Z,88.71
2018-07-20T18:01:56.047Z,87.41
2018-07-20T18:04:24.658Z,90.28
2018-07-20T18:06:53.141Z,90.06
2018-07-20T18:09:21.642Z,90.29
2018-07-20T18:11:50.433Z,90.28
2018-07-20T18:14:18.933Z,91.86
2018-07-20T18:16:47.511Z,90.67
2018-07-20T18:19:16.144Z,90.62
2018-07-20T18:21:44.665Z,90.95
2018-07-20T18:24:13.172Z,90.32
2018-07-20T18:26:41.726Z,88.62
2018-07-20T18:29:10.296Z,89.28
2018-07-20T18:31:38.833Z,89.11
2018-07-20T18:34:07.394Z,89.42
2018-07-20T18:36:36.071Z,89.52
2018-07-20T18:39:06.586Z,91.16
2018-07-20T18:41:35.106Z,90.89
2018-07-20T18:44:03.757Z,89.18
2018-07-20T18:46:32.417Z,89.40
2018-07-20T18:49:00.942Z,90.42
2018-07-20T18:51:29.434Z,89.61
2018-07-20T18:53:58.363Z,89.85
2018-07-20T18:56:27.010Z,92.32
2018-07-20T18:58:55.688Z,91.75
2018-07-20T19:01:24.225Z,92.16
2018-07-20T19:03:52.749Z,93.32
2018-07-20T19:06:21.230Z,93.56
2018-07-20T19:08:49.922Z,93.05
2018-07-20T19:11:18.454Z,94.27
2018-07-20T19:13:47.119Z,95.05
2018-07-20T19:16:15.662Z,94.91
2018-07-20T19:18:44.157Z,93.28
2018-07-20T19:21:12.714Z,98.23
2018-07-20T19:23:41.348Z,100.00
2018-07-20T19:26:09.829Z,100.00
2018-07-20T19:28:39.538Z,100.00
2018-07-20T19:31:08.169Z,100.00
2018-07-20T19:33:36.958Z,100.00
2018-07-20T19:36:05.440Z,100.00
2018-07-20T19:38:33.927Z,100.00
2018-07-20T19:41:02.438Z,100.00
2018-07-20T19:43:31.017Z,100.00
2018-07-20T19:45:59.691Z,100.00
2018-07-20T19:48:28.179Z,100.00
2018-07-20T19:50:56.816Z,100.00
2018-07-20T19:53:25.442Z,100.00
2018-07-20T19:55:53.928Z,100.00
2018-07-20T19:58:22.622Z,100.00
2018-07-20T20:00:51.245Z,100.00
2018-07-20T20:03:19.915Z,100.00
2018-07-20T20:05:48.648Z,100.00
2018-07-20T20:08:17.159Z,100.00
2018-07-20T20:10:45.724Z,100.00
2018-07-20T20:13:14.246Z,100.00
2018-07-20T20:15:43.266Z,100.00
2018-07-20T20:18:11.797Z,100.00
2018-07-20T20:20:40.570Z,100.00
2018-07-20T20:23:09.067Z,100.00
2018-07-20T20:25:37.604Z,100.00
2018-07-20T20:28:06.150Z,100.00
2018-07-20T20:30:34.798Z,100.00
2018-07-20T20:33:07.897Z,100.00
2018-07-20T20:35:36.435Z,100.00
2018-07-20T20:38:05.102Z,100.00
2018-07-20T20:40:33.757Z,100.00
2018-07-20T20:43:02.310Z,100.00
2018-07-20T20:45:30.829Z,100.00
2018-07-20T20:47:59.477Z,100.00
2018-07-20T20:50:28.103Z,100.00
2018-07-20T20:52:56.665Z,100.00
2018-07-20T20:55:25.212Z,100.00
2018-07-20T20:57:53.769Z,100.00
2018-07-20T21:00:22.417Z,100.00
2018-07-20T21:02:50.936Z,100.00
2018-07-20T21:05:19.559Z,100.00
2018-07-20T21:07:48.292Z,100.00
2018-07-20T21:10:16.834Z,100.00
2018-07-20T21:12:45.305Z,100.00
2018-07-20T21:15:13.789Z,100.00
2018-07-20T21:17:42.606Z,100.00
2018-07-20T21:20:11.145Z,100.00
2018-07-20T21:22:39.818Z,100.00
2018-07-20T21:25:08.433Z,100.00
2018-07-20T21:27:37.077Z,100.00
2018-07-20T21:30:05.923Z,100.00
2018-07-20T21:32:34.532Z,100.00
2018-07-20T21:35:03.219Z,100.00
2018-07-20T21:37:31.846Z,100.00
2018-07-20T21:40:00.361Z,100.00
2018-07-20T21:42:28.901Z,100.00
2018-07-20T21:44:57.489Z,100.00
2018-07-20T21:47:26.079Z,100.00
2018-07-20T21:49:54.602Z,100.00
2018-07-20T21:52:23.182Z,100.00
2018-07-20T21:54:51.917Z,100.00
2018-07-20T21:57:20.550Z,100.00
2018-07-20T21:59:49.133Z,100.00
2018-07-20T22:02:17.686Z,100.00
2018-07-20T22:04:46.482Z,100.00
2018-07-20T22:07:15.394Z,100.00
2018-07-20T22:09:43.915Z,100.00
2018-07-20T22:12:12.634Z,100.00
2018-07-20T22:14:41.440Z,100.00
2018-07-20T22:17:09.971Z,100.00
2018-07-20T22:19:38.638Z,100.00
2018-07-20T22:22:07.216Z,100.00
2018-07-20T22:24:35.730Z,100.00
2018-07-20T22:27:04.397Z,100.00
2018-07-20T22:29:33.098Z,100.00
2018-07-20T22:32:01.604Z,100.00
2018-07-20T22:34:30.122Z,100.00
2018-07-20T22:36:58.650Z,100.00
2018-07-20T22:39:27.286Z,100.00
2018-07-20T22:41:55.878Z,100.00
2018-07-20T22:44:24.411Z,100.00
2018-07-20T22:46:53.292Z,100.00
2018-07-20T22:49:22.374Z,100.00
2018-07-20T22:51:50.966Z,100.00
2018-07-20T22:54:19.444Z,100.00
2018-07-20T22:56:48.382Z,100.00
2018-07-20T22:59:16.918Z,100.00
2018-07-20T23:01:45.366Z,100.00
2018-07-20T23:04:13.880Z,100.00
2018-07-20T23:06:42.379Z,100.00
2018-07-20T23:09:11.558Z,100.00
2018-07-20T23:11:40.771Z,100.00
2018-07-20T23:14:09.339Z,100.00
2018-07-20T23:16:38.285Z,100.00
2018-07-20T23:19:07.782Z,100.00
2018-07-20T23:21:36.354Z,100.00
2018-07-20T23:24:05.067Z,100.00
2018-07-20T23:26:33.615Z,100.00
2018-07-20T23:29:02.388Z,100.00
2018-07-20T23:31:30.956Z,100.00
2018-07-20T23:33:59.426Z,100.00
2018-07-20T23:36:27.927Z,100.00
2018-07-20T23:38:56.399Z,100.00
2018-07-20T23:41:25.303Z,100.00
2018-07-20T23:43:53.773Z,100.00
2018-07-20T23:46:22.246Z,100.00
2018-07-20T23:48:53.634Z,100.00
2018-07-20T23:51:22.638Z,100.00
2018-07-20T23:53:51.229Z,100.00
2018-07-20T23:56:19.755Z,100.00
2018-07-20T23:58:48.371Z,100.00
